sensor_id;sensor_type;location;lat;lon;timestamp;P1;durP1;ratioP1;P2;durP2;ratioP2
7181;SDS011;3632;42.724;23.298;2024-01-11T00:01:59;57.80;;;29.33;;
7181;SDS011;3632;42.724;23.298;2024-01-11T00:04:28;61.93;;;29.30;;
7181;SDS011;3632;42.724;23.298;2024-01-11T00:06:55;66.80;;;30.37;;
7181;SDS011;3632;42.724;23.298;2024-01-11T00:09:21;62.23;;;29.53;;
7181;SDS011;3632;42.724;23.298;2024-01-11T00:11:48;59.43;;;28.73;;
7181;SDS011;3632;42.724;23.298;2024-01-11T00:14:15;63.30;;;30.37;;
7181;SDS011;3632;42.724;23.298;2024-01-11T00:16:42;61.07;;;29.67;;
7181;SDS011;3632;42.724;23.298;2024-01-11T00:19:08;62.77;;;29.63;;
7181;SDS011;3632;42.724;23.298;2024-01-11T00:21:37;75.53;;;33.00;;
7181;SDS011;3632;42.724;23.298;2024-01-11T00:24:03;79.40;;;35.00;;
7181;SDS011;3632;42.724;23.298;2024-01-11T00:26:31;83.13;;;37.90;;
7181;SDS011;3632;42.724;23.298;2024-01-11T00:28:57;70.80;;;34.40;;
7181;SDS011;3632;42.724;23.298;2024-01-11T00:31:24;58.37;;;29.33;;
7181;SDS011;3632;42.724;23.298;2024-01-11T00:33:52;55.50;;;28.07;;
7181;SDS011;3632;42.724;23.298;2024-01-11T00:36:19;59.83;;;28.63;;
7181;SDS011;3632;42.724;23.298;2024-01-11T00:38:47;57.43;;;29.27;;
7181;SDS011;3632;42.724;23.298;2024-01-11T00:41:14;62.77;;;29.33;;
7181;SDS011;3632;42.724;23.298;2024-01-11T00:43:40;56.23;;;27.90;;
7181;SDS011;3632;42.724;23.298;2024-01-11T00:46:07;53.27;;;26.90;;
7181;SDS011;3632;42.724;23.298;2024-01-11T00:48:34;51.77;;;28.13;;
7181;SDS011;3632;42.724;23.298;2024-01-11T00:51:01;54.90;;;27.67;;
7181;SDS011;3632;42.724;23.298;2024-01-11T00:53:27;50.90;;;25.77;;
7181;SDS011;3632;42.724;23.298;2024-01-11T00:55:57;48.20;;;25.83;;
7181;SDS011;3632;42.724;23.298;2024-01-11T00:58:24;56.60;;;27.97;;
7181;SDS011;3632;42.724;23.298;2024-01-11T01:00:51;56.50;;;26.40;;
7181;SDS011;3632;42.724;23.298;2024-01-11T01:03:18;55.23;;;25.60;;
7181;SDS011;3632;42.724;23.298;2024-01-11T01:05:45;60.73;;;28.33;;
7181;SDS011;3632;42.724;23.298;2024-01-11T01:08:12;62.20;;;30.20;;
7181;SDS011;3632;42.724;23.298;2024-01-11T01:10:39;67.10;;;30.10;;
7181;SDS011;3632;42.724;23.298;2024-01-11T01:13:07;62.87;;;28.73;;
7181;SDS011;3632;42.724;23.298;2024-01-11T01:15:34;60.60;;;28.27;;
7181;SDS011;3632;42.724;23.298;2024-01-11T01:18:01;53.23;;;26.73;;
7181;SDS011;3632;42.724;23.298;2024-01-11T01:20:27;42.97;;;23.00;;
7181;SDS011;3632;42.724;23.298;2024-01-11T01:22:54;42.60;;;21.73;;
7181;SDS011;3632;42.724;23.298;2024-01-11T01:25:21;46.30;;;24.73;;
7181;SDS011;3632;42.724;23.298;2024-01-11T01:27:48;49.30;;;25.10;;
7181;SDS011;3632;42.724;23.298;2024-01-11T01:30:16;47.67;;;26.37;;
7181;SDS011;3632;42.724;23.298;2024-01-11T01:32:43;55.20;;;27.93;;
7181;SDS011;3632;42.724;23.298;2024-01-11T01:35:09;50.60;;;27.93;;
7181;SDS011;3632;42.724;23.298;2024-01-11T01:37:36;42.90;;;24.70;;
7181;SDS011;3632;42.724;23.298;2024-01-11T01:40:03;42.57;;;23.33;;
7181;SDS011;3632;42.724;23.298;2024-01-11T01:42:32;41.60;;;22.20;;
7181;SDS011;3632;42.724;23.298;2024-01-11T01:44:59;36.80;;;21.83;;
7181;SDS011;3632;42.724;23.298;2024-01-11T01:47:27;65.77;;;33.23;;
7181;SDS011;3632;42.724;23.298;2024-01-11T01:49:54;50.10;;;27.47;;
7181;SDS011;3632;42.724;23.298;2024-01-11T01:52:22;47.43;;;27.10;;
7181;SDS011;3632;42.724;23.298;2024-01-11T01:54:50;53.77;;;28.00;;
7181;SDS011;3632;42.724;23.298;2024-01-11T01:57:17;45.70;;;24.17;;
7181;SDS011;3632;42.724;23.298;2024-01-11T01:59:47;41.93;;;23.23;;
7181;SDS011;3632;42.724;23.298;2024-01-11T02:02:18;45.57;;;24.37;;
7181;SDS011;3632;42.724;23.298;2024-01-11T02:04:47;42.23;;;22.33;;
7181;SDS011;3632;42.724;23.298;2024-01-11T02:07:14;38.80;;;21.70;;
7181;SDS011;3632;42.724;23.298;2024-01-11T02:09:42;42.43;;;22.87;;
7181;SDS011;3632;42.724;23.298;2024-01-11T02:12:10;50.07;;;24.13;;
7181;SDS011;3632;42.724;23.298;2024-01-11T02:14:38;43.27;;;24.17;;
7181;SDS011;3632;42.724;23.298;2024-01-11T02:17:05;44.67;;;24.20;;
7181;SDS011;3632;42.724;23.298;2024-01-11T02:19:32;39.43;;;23.37;;
7181;SDS011;3632;42.724;23.298;2024-01-11T02:22:02;42.27;;;24.33;;
7181;SDS011;3632;42.724;23.298;2024-01-11T02:24:33;49.53;;;25.17;;
7181;SDS011;3632;42.724;23.298;2024-01-11T02:27:00;50.00;;;25.50;;
7181;SDS011;3632;42.724;23.298;2024-01-11T02:29:29;49.30;;;26.90;;
7181;SDS011;3632;42.724;23.298;2024-01-11T02:31:57;49.90;;;27.07;;
7181;SDS011;3632;42.724;23.298;2024-01-11T02:34:26;51.40;;;28.37;;
7181;SDS011;3632;42.724;23.298;2024-01-11T02:36:54;54.77;;;27.60;;
7181;SDS011;3632;42.724;23.298;2024-01-11T02:39:22;55.47;;;30.57;;
7181;SDS011;3632;42.724;23.298;2024-01-11T02:41:53;57.47;;;30.57;;
7181;SDS011;3632;42.724;23.298;2024-01-11T02:44:22;59.27;;;31.70;;
7181;SDS011;3632;42.724;23.298;2024-01-11T02:46:48;62.70;;;32.47;;
7181;SDS011;3632;42.724;23.298;2024-01-11T02:49:15;61.50;;;30.77;;
7181;SDS011;3632;42.724;23.298;2024-01-11T02:51:42;56.23;;;30.80;;
7181;SDS011;3632;42.724;23.298;2024-01-11T02:54:10;55.80;;;30.00;;
7181;SDS011;3632;42.724;23.298;2024-01-11T02:56:36;55.07;;;28.77;;
7181;SDS011;3632;42.724;23.298;2024-01-11T02:59:05;55.30;;;28.60;;
7181;SDS011;3632;42.724;23.298;2024-01-11T03:01:31;57.83;;;29.53;;
7181;SDS011;3632;42.724;23.298;2024-01-11T03:03:59;51.77;;;28.20;;
7181;SDS011;3632;42.724;23.298;2024-01-11T03:06:26;54.27;;;29.53;;
7181;SDS011;3632;42.724;23.298;2024-01-11T03:08:52;50.23;;;28.97;;
7181;SDS011;3632;42.724;23.298;2024-01-11T03:11:19;51.60;;;27.20;;
7181;SDS011;3632;42.724;23.298;2024-01-11T03:13:46;52.40;;;28.40;;
7181;SDS011;3632;42.724;23.298;2024-01-11T03:16:14;46.03;;;26.00;;
7181;SDS011;3632;42.724;23.298;2024-01-11T03:18:41;51.83;;;26.37;;
7181;SDS011;3632;42.724;23.298;2024-01-11T03:21:07;53.17;;;26.40;;
7181;SDS011;3632;42.724;23.298;2024-01-11T03:23:34;47.30;;;25.67;;
7181;SDS011;3632;42.724;23.298;2024-01-11T03:26:01;53.60;;;26.83;;
7181;SDS011;3632;42.724;23.298;2024-01-11T03:28:28;48.50;;;25.30;;
7181;SDS011;3632;42.724;23.298;2024-01-11T03:30:55;41.43;;;23.83;;
7181;SDS011;3632;42.724;23.298;2024-01-11T03:33:23;46.63;;;24.07;;
7181;SDS011;3632;42.724;23.298;2024-01-11T03:35:50;45.30;;;24.43;;
7181;SDS011;3632;42.724;23.298;2024-01-11T03:38:16;44.13;;;21.90;;
7181;SDS011;3632;42.724;23.298;2024-01-11T03:40:43;40.97;;;24.10;;
7181;SDS011;3632;42.724;23.298;2024-01-11T03:43:10;43.07;;;23.70;;
7181;SDS011;3632;42.724;23.298;2024-01-11T03:45:37;45.23;;;25.00;;
7181;SDS011;3632;42.724;23.298;2024-01-11T03:48:04;47.50;;;25.90;;
7181;SDS011;3632;42.724;23.298;2024-01-11T03:50:32;43.27;;;22.97;;
7181;SDS011;3632;42.724;23.298;2024-01-11T03:52:59;40.67;;;20.80;;
7181;SDS011;3632;42.724;23.298;2024-01-11T03:55:26;36.80;;;20.37;;
7181;SDS011;3632;42.724;23.298;2024-01-11T03:57:52;28.90;;;17.07;;
7181;SDS011;3632;42.724;23.298;2024-01-11T04:00:19;35.73;;;20.33;;
7181;SDS011;3632;42.724;23.298;2024-01-11T04:02:46;41.40;;;23.40;;
7181;SDS011;3632;42.724;23.298;2024-01-11T04:05:13;28.83;;;16.83;;
7181;SDS011;3632;42.724;23.298;2024-01-11T04:07:41;35.80;;;21.53;;
7181;SDS011;3632;42.724;23.298;2024-01-11T04:10:08;35.30;;;22.87;;
7181;SDS011;3632;42.724;23.298;2024-01-11T04:12:35;38.77;;;22.63;;
7181;SDS011;3632;42.724;23.298;2024-01-11T04:15:03;47.47;;;25.63;;
7181;SDS011;3632;42.724;23.298;2024-01-11T04:17:30;57.93;;;31.73;;
7181;SDS011;3632;42.724;23.298;2024-01-11T04:19:57;61.40;;;33.37;;
7181;SDS011;3632;42.724;23.298;2024-01-11T04:22:23;62.60;;;32.63;;
7181;SDS011;3632;42.724;23.298;2024-01-11T04:24:52;55.93;;;31.27;;
7181;SDS011;3632;42.724;23.298;2024-01-11T04:27:18;56.77;;;30.57;;
7181;SDS011;3632;42.724;23.298;2024-01-11T04:29:45;56.13;;;30.90;;
7181;SDS011;3632;42.724;23.298;2024-01-11T04:32:12;48.10;;;27.17;;
7181;SDS011;3632;42.724;23.298;2024-01-11T04:34:39;43.73;;;26.83;;
7181;SDS011;3632;42.724;23.298;2024-01-11T04:37:05;44.33;;;25.60;;
7181;SDS011;3632;42.724;23.298;2024-01-11T04:39:32;43.53;;;26.13;;
7181;SDS011;3632;42.724;23.298;2024-01-11T04:42:01;47.60;;;26.27;;
7181;SDS011;3632;42.724;23.298;2024-01-11T04:44:28;44.00;;;26.47;;
7181;SDS011;3632;42.724;23.298;2024-01-11T04:46:55;45.97;;;26.90;;
7181;SDS011;3632;42.724;23.298;2024-01-11T04:49:22;50.67;;;28.13;;
7181;SDS011;3632;42.724;23.298;2024-01-11T04:51:49;54.53;;;31.80;;
7181;SDS011;3632;42.724;23.298;2024-01-11T04:54:15;54.60;;;32.27;;
7181;SDS011;3632;42.724;23.298;2024-01-11T04:56:42;49.77;;;32.10;;
7181;SDS011;3632;42.724;23.298;2024-01-11T04:59:11;40.93;;;25.10;;
7181;SDS011;3632;42.724;23.298;2024-01-11T05:01:37;36.53;;;20.57;;
7181;SDS011;3632;42.724;23.298;2024-01-11T05:04:06;29.53;;;18.20;;
7181;SDS011;3632;42.724;23.298;2024-01-11T05:06:32;29.67;;;17.37;;
7181;SDS011;3632;42.724;23.298;2024-01-11T05:08:59;28.77;;;15.80;;
7181;SDS011;3632;42.724;23.298;2024-01-11T05:11:26;44.13;;;26.90;;
7181;SDS011;3632;42.724;23.298;2024-01-11T05:13:53;57.40;;;30.77;;
7181;SDS011;3632;42.724;23.298;2024-01-11T05:16:21;53.47;;;29.80;;
7181;SDS011;3632;42.724;23.298;2024-01-11T05:18:49;38.13;;;22.37;;
7181;SDS011;3632;42.724;23.298;2024-01-11T05:21:17;41.93;;;26.43;;
7181;SDS011;3632;42.724;23.298;2024-01-11T05:23:44;50.93;;;31.43;;
7181;SDS011;3632;42.724;23.298;2024-01-11T05:26:12;51.80;;;30.57;;
7181;SDS011;3632;42.724;23.298;2024-01-11T05:28:39;54.33;;;32.20;;
7181;SDS011;3632;42.724;23.298;2024-01-11T05:31:06;58.07;;;36.20;;
7181;SDS011;3632;42.724;23.298;2024-01-11T05:33:36;60.53;;;36.23;;
7181;SDS011;3632;42.724;23.298;2024-01-11T05:36:03;59.60;;;36.60;;
7181;SDS011;3632;42.724;23.298;2024-01-11T05:38:31;58.07;;;35.87;;
7181;SDS011;3632;42.724;23.298;2024-01-11T05:40:58;57.13;;;35.50;;
7181;SDS011;3632;42.724;23.298;2024-01-11T05:43:24;61.60;;;35.73;;
7181;SDS011;3632;42.724;23.298;2024-01-11T05:45:51;68.07;;;38.63;;
7181;SDS011;3632;42.724;23.298;2024-01-11T05:48:18;62.70;;;36.90;;
7181;SDS011;3632;42.724;23.298;2024-01-11T05:50:46;63.60;;;36.60;;
7181;SDS011;3632;42.724;23.298;2024-01-11T05:53:13;58.77;;;32.87;;
7181;SDS011;3632;42.724;23.298;2024-01-11T05:55:40;63.40;;;35.57;;
7181;SDS011;3632;42.724;23.298;2024-01-11T05:58:07;139.03;;;101.13;;
7181;SDS011;3632;42.724;23.298;2024-01-11T06:00:34;80.00;;;50.07;;
7181;SDS011;3632;42.724;23.298;2024-01-11T06:03:01;76.70;;;42.67;;
7181;SDS011;3632;42.724;23.298;2024-01-11T06:05:27;74.27;;;42.77;;
7181;SDS011;3632;42.724;23.298;2024-01-11T06:07:55;74.17;;;44.67;;
7181;SDS011;3632;42.724;23.298;2024-01-11T06:10:22;81.30;;;47.00;;
7181;SDS011;3632;42.724;23.298;2024-01-11T06:12:49;85.53;;;53.07;;
7181;SDS011;3632;42.724;23.298;2024-01-11T06:15:15;85.17;;;51.23;;
7181;SDS011;3632;42.724;23.298;2024-01-11T06:17:42;78.00;;;48.83;;
7181;SDS011;3632;42.724;23.298;2024-01-11T06:20:10;76.70;;;48.33;;
7181;SDS011;3632;42.724;23.298;2024-01-11T06:22:37;90.30;;;52.67;;
7181;SDS011;3632;42.724;23.298;2024-01-11T06:25:05;91.47;;;52.90;;
7181;SDS011;3632;42.724;23.298;2024-01-11T06:27:32;104.37;;;60.93;;
7181;SDS011;3632;42.724;23.298;2024-01-11T06:29:59;109.00;;;64.23;;
7181;SDS011;3632;42.724;23.298;2024-01-11T06:32:26;92.00;;;55.07;;
7181;SDS011;3632;42.724;23.298;2024-01-11T06:34:53;92.80;;;53.17;;
7181;SDS011;3632;42.724;23.298;2024-01-11T06:37:20;82.60;;;48.57;;
7181;SDS011;3632;42.724;23.298;2024-01-11T06:39:47;80.93;;;48.73;;
7181;SDS011;3632;42.724;23.298;2024-01-11T06:42:15;82.97;;;50.13;;
7181;SDS011;3632;42.724;23.298;2024-01-11T06:44:42;91.87;;;53.83;;
7181;SDS011;3632;42.724;23.298;2024-01-11T06:47:09;104.50;;;59.97;;
7181;SDS011;3632;42.724;23.298;2024-01-11T06:49:38;107.73;;;62.33;;
7181;SDS011;3632;42.724;23.298;2024-01-11T06:52:05;94.53;;;52.53;;
7181;SDS011;3632;42.724;23.298;2024-01-11T06:54:32;92.10;;;51.00;;
7181;SDS011;3632;42.724;23.298;2024-01-11T06:56:58;91.40;;;52.43;;
7181;SDS011;3632;42.724;23.298;2024-01-11T06:59:26;80.57;;;48.43;;
7181;SDS011;3632;42.724;23.298;2024-01-11T07:01:53;80.87;;;47.57;;
7181;SDS011;3632;42.724;23.298;2024-01-11T07:04:20;78.47;;;46.17;;
7181;SDS011;3632;42.724;23.298;2024-01-11T07:06:47;75.47;;;44.73;;
7181;SDS011;3632;42.724;23.298;2024-01-11T07:09:13;77.23;;;43.23;;
7181;SDS011;3632;42.724;23.298;2024-01-11T07:11:42;78.90;;;45.30;;
7181;SDS011;3632;42.724;23.298;2024-01-11T07:14:09;74.60;;;43.13;;
7181;SDS011;3632;42.724;23.298;2024-01-11T07:16:37;71.27;;;44.00;;
7181;SDS011;3632;42.724;23.298;2024-01-11T07:19:04;68.30;;;40.00;;
7181;SDS011;3632;42.724;23.298;2024-01-11T07:21:31;47.93;;;30.23;;
7181;SDS011;3632;42.724;23.298;2024-01-11T07:23:58;45.20;;;27.83;;
7181;SDS011;3632;42.724;23.298;2024-01-11T07:26:25;40.03;;;24.90;;
7181;SDS011;3632;42.724;23.298;2024-01-11T07:28:52;62.17;;;35.90;;
7181;SDS011;3632;42.724;23.298;2024-01-11T07:31:20;52.83;;;33.67;;
7181;SDS011;3632;42.724;23.298;2024-01-11T07:33:49;48.87;;;28.03;;
7181;SDS011;3632;42.724;23.298;2024-01-11T07:36:16;41.33;;;26.03;;
7181;SDS011;3632;42.724;23.298;2024-01-11T07:38:43;36.67;;;21.93;;
7181;SDS011;3632;42.724;23.298;2024-01-11T07:41:09;25.57;;;17.13;;
7181;SDS011;3632;42.724;23.298;2024-01-11T07:43:37;24.27;;;14.70;;
7181;SDS011;3632;42.724;23.298;2024-01-11T07:46:03;24.87;;;14.60;;
7181;SDS011;3632;42.724;23.298;2024-01-11T07:48:32;25.33;;;14.07;;
7181;SDS011;3632;42.724;23.298;2024-01-11T07:51:00;20.40;;;13.27;;
7181;SDS011;3632;42.724;23.298;2024-01-11T07:53:27;20.07;;;13.63;;
7181;SDS011;3632;42.724;23.298;2024-01-11T07:55:54;21.77;;;13.93;;
7181;SDS011;3632;42.724;23.298;2024-01-11T07:58:21;16.57;;;10.47;;
7181;SDS011;3632;42.724;23.298;2024-01-11T08:00:47;22.30;;;13.90;;
7181;SDS011;3632;42.724;23.298;2024-01-11T08:03:15;24.73;;;15.23;;
7181;SDS011;3632;42.724;23.298;2024-01-11T08:05:41;22.30;;;12.97;;
7181;SDS011;3632;42.724;23.298;2024-01-11T08:08:10;19.57;;;12.60;;
7181;SDS011;3632;42.724;23.298;2024-01-11T08:10:37;21.73;;;13.43;;
7181;SDS011;3632;42.724;23.298;2024-01-11T08:13:04;21.37;;;14.50;;
7181;SDS011;3632;42.724;23.298;2024-01-11T08:15:31;22.30;;;13.73;;
7181;SDS011;3632;42.724;23.298;2024-01-11T08:17:58;24.93;;;14.70;;
7181;SDS011;3632;42.724;23.298;2024-01-11T08:20:25;25.27;;;14.43;;
7181;SDS011;3632;42.724;23.298;2024-01-11T08:22:52;22.07;;;14.03;;
7181;SDS011;3632;42.724;23.298;2024-01-11T08:25:20;22.70;;;14.27;;
7181;SDS011;3632;42.724;23.298;2024-01-11T08:27:48;25.57;;;15.20;;
7181;SDS011;3632;42.724;23.298;2024-01-11T08:30:15;20.63;;;13.83;;
7181;SDS011;3632;42.724;23.298;2024-01-11T08:32:42;23.07;;;14.47;;
7181;SDS011;3632;42.724;23.298;2024-01-11T08:35:10;24.70;;;15.43;;
7181;SDS011;3632;42.724;23.298;2024-01-11T08:37:37;26.67;;;18.00;;
7181;SDS011;3632;42.724;23.298;2024-01-11T08:40:05;28.30;;;17.27;;
7181;SDS011;3632;42.724;23.298;2024-01-11T08:42:35;22.97;;;16.10;;
7181;SDS011;3632;42.724;23.298;2024-01-11T08:45:03;25.43;;;16.07;;
7181;SDS011;3632;42.724;23.298;2024-01-11T08:47:32;29.67;;;18.43;;
7181;SDS011;3632;42.724;23.298;2024-01-11T08:49:59;28.67;;;18.27;;
7181;SDS011;3632;42.724;23.298;2024-01-11T08:52:26;27.07;;;17.97;;
7181;SDS011;3632;42.724;23.298;2024-01-11T08:54:53;28.40;;;18.17;;
7181;SDS011;3632;42.724;23.298;2024-01-11T08:57:20;32.33;;;19.10;;
7181;SDS011;3632;42.724;23.298;2024-01-11T08:59:48;26.97;;;17.33;;
7181;SDS011;3632;42.724;23.298;2024-01-11T09:02:14;26.93;;;18.80;;
7181;SDS011;3632;42.724;23.298;2024-01-11T09:04:41;29.73;;;19.33;;
7181;SDS011;3632;42.724;23.298;2024-01-11T09:07:08;30.73;;;18.93;;
7181;SDS011;3632;42.724;23.298;2024-01-11T09:09:35;38.80;;;22.80;;
7181;SDS011;3632;42.724;23.298;2024-01-11T09:12:02;33.97;;;22.33;;
7181;SDS011;3632;42.724;23.298;2024-01-11T09:14:29;34.97;;;21.27;;
7181;SDS011;3632;42.724;23.298;2024-01-11T09:16:57;31.33;;;21.80;;
7181;SDS011;3632;42.724;23.298;2024-01-11T09:19:24;25.13;;;18.53;;
7181;SDS011;3632;42.724;23.298;2024-01-11T09:21:51;25.60;;;18.30;;
7181;SDS011;3632;42.724;23.298;2024-01-11T09:24:18;26.80;;;17.73;;
7181;SDS011;3632;42.724;23.298;2024-01-11T09:26:44;26.47;;;16.30;;
7181;SDS011;3632;42.724;23.298;2024-01-11T09:29:11;26.00;;;15.80;;
7181;SDS011;3632;42.724;23.298;2024-01-11T09:31:38;28.97;;;18.30;;
7181;SDS011;3632;42.724;23.298;2024-01-11T09:34:06;26.53;;;18.13;;
7181;SDS011;3632;42.724;23.298;2024-01-11T09:36:33;27.27;;;18.47;;
7181;SDS011;3632;42.724;23.298;2024-01-11T09:39:03;29.23;;;18.07;;
7181;SDS011;3632;42.724;23.298;2024-01-11T09:41:30;24.43;;;17.07;;
7181;SDS011;3632;42.724;23.298;2024-01-11T09:43:58;24.00;;;17.50;;
7181;SDS011;3632;42.724;23.298;2024-01-11T09:46:27;27.17;;;16.83;;
7181;SDS011;3632;42.724;23.298;2024-01-11T09:48:54;24.07;;;16.37;;
7181;SDS011;3632;42.724;23.298;2024-01-11T09:51:23;24.73;;;17.00;;
7181;SDS011;3632;42.724;23.298;2024-01-11T09:53:52;21.40;;;16.60;;
7181;SDS011;3632;42.724;23.298;2024-01-11T09:56:21;26.40;;;17.97;;
7181;SDS011;3632;42.724;23.298;2024-01-11T09:58:49;24.23;;;17.03;;
7181;SDS011;3632;42.724;23.298;2024-01-11T10:01:17;21.60;;;15.83;;
7181;SDS011;3632;42.724;23.298;2024-01-11T10:03:44;23.20;;;16.97;;
7181;SDS011;3632;42.724;23.298;2024-01-11T10:06:11;23.27;;;17.83;;
7181;SDS011;3632;42.724;23.298;2024-01-11T10:08:40;27.83;;;19.07;;
7181;SDS011;3632;42.724;23.298;2024-01-11T10:11:06;26.43;;;18.80;;
7181;SDS011;3632;42.724;23.298;2024-01-11T10:13:33;26.30;;;18.20;;
7181;SDS011;3632;42.724;23.298;2024-01-11T10:16:06;27.07;;;18.73;;
7181;SDS011;3632;42.724;23.298;2024-01-11T10:18:34;28.43;;;18.27;;
7181;SDS011;3632;42.724;23.298;2024-01-11T10:21:01;24.90;;;17.70;;
7181;SDS011;3632;42.724;23.298;2024-01-11T10:23:28;26.27;;;17.40;;
7181;SDS011;3632;42.724;23.298;2024-01-11T10:25:57;24.90;;;16.83;;
7181;SDS011;3632;42.724;23.298;2024-01-11T10:28:24;22.50;;;15.73;;
7181;SDS011;3632;42.724;23.298;2024-01-11T10:30:53;22.57;;;15.27;;
7181;SDS011;3632;42.724;23.298;2024-01-11T10:33:20;24.70;;;16.00;;
7181;SDS011;3632;42.724;23.298;2024-01-11T10:35:47;21.37;;;14.97;;
7181;SDS011;3632;42.724;23.298;2024-01-11T10:38:15;24.17;;;15.37;;
7181;SDS011;3632;42.724;23.298;2024-01-11T10:40:42;22.90;;;14.37;;
7181;SDS011;3632;42.724;23.298;2024-01-11T10:43:11;20.40;;;13.33;;
7181;SDS011;3632;42.724;23.298;2024-01-11T10:45:41;20.50;;;14.37;;
7181;SDS011;3632;42.724;23.298;2024-01-11T10:48:13;16.10;;;12.83;;
7181;SDS011;3632;42.724;23.298;2024-01-11T10:50:42;17.97;;;12.93;;
7181;SDS011;3632;42.724;23.298;2024-01-11T10:53:12;16.10;;;13.10;;
7181;SDS011;3632;42.724;23.298;2024-01-11T10:55:52;17.77;;;13.13;;
7181;SDS011;3632;42.724;23.298;2024-01-11T10:58:22;15.97;;;13.03;;
7181;SDS011;3632;42.724;23.298;2024-01-11T11:00:51;17.10;;;13.63;;
7181;SDS011;3632;42.724;23.298;2024-01-11T11:03:20;20.00;;;12.93;;
7181;SDS011;3632;42.724;23.298;2024-01-11T11:05:49;15.67;;;12.67;;
7181;SDS011;3632;42.724;23.298;2024-01-11T11:08:20;16.03;;;12.57;;
7181;SDS011;3632;42.724;23.298;2024-01-11T11:10:49;16.43;;;11.87;;
7181;SDS011;3632;42.724;23.298;2024-01-11T11:13:17;15.10;;;12.50;;
7181;SDS011;3632;42.724;23.298;2024-01-11T11:15:46;15.83;;;12.33;;
7181;SDS011;3632;42.724;23.298;2024-01-11T11:18:14;15.17;;;12.40;;
7181;SDS011;3632;42.724;23.298;2024-01-11T11:20:43;12.97;;;11.57;;
7181;SDS011;3632;42.724;23.298;2024-01-11T11:23:10;14.67;;;11.83;;
7181;SDS011;3632;42.724;23.298;2024-01-11T11:25:40;16.33;;;12.23;;
7181;SDS011;3632;42.724;23.298;2024-01-11T11:28:07;16.33;;;12.47;;
7181;SDS011;3632;42.724;23.298;2024-01-11T11:30:36;16.80;;;13.03;;
7181;SDS011;3632;42.724;23.298;2024-01-11T11:33:09;17.23;;;12.57;;
7181;SDS011;3632;42.724;23.298;2024-01-11T11:35:36;16.63;;;12.00;;
7181;SDS011;3632;42.724;23.298;2024-01-11T11:38:04;17.77;;;11.97;;
7181;SDS011;3632;42.724;23.298;2024-01-11T11:40:32;15.37;;;11.97;;
7181;SDS011;3632;42.724;23.298;2024-01-11T11:43:02;16.40;;;11.83;;
7181;SDS011;3632;42.724;23.298;2024-01-11T11:45:30;14.37;;;12.03;;
7181;SDS011;3632;42.724;23.298;2024-01-11T11:47:57;15.83;;;12.70;;
7181;SDS011;3632;42.724;23.298;2024-01-11T11:50:26;16.20;;;13.07;;
7181;SDS011;3632;42.724;23.298;2024-01-11T11:52:53;14.70;;;12.00;;
7181;SDS011;3632;42.724;23.298;2024-01-11T11:55:22;18.57;;;13.00;;
7181;SDS011;3632;42.724;23.298;2024-01-11T11:57:50;11.90;;;10.30;;
7181;SDS011;3632;42.724;23.298;2024-01-11T12:00:18;16.93;;;10.80;;
7181;SDS011;3632;42.724;23.298;2024-01-11T12:02:46;14.13;;;10.20;;
7181;SDS011;3632;42.724;23.298;2024-01-11T12:05:13;12.93;;;10.50;;
7181;SDS011;3632;42.724;23.298;2024-01-11T12:07:42;12.20;;;9.43;;
7181;SDS011;3632;42.724;23.298;2024-01-11T12:10:08;10.33;;;8.80;;
7181;SDS011;3632;42.724;23.298;2024-01-11T12:12:35;8.03;;;6.97;;
7181;SDS011;3632;42.724;23.298;2024-01-11T12:15:03;10.60;;;7.10;;
7181;SDS011;3632;42.724;23.298;2024-01-11T12:17:31;8.30;;;7.03;;
7181;SDS011;3632;42.724;23.298;2024-01-11T12:19:57;9.50;;;6.70;;
7181;SDS011;3632;42.724;23.298;2024-01-11T12:22:24;6.70;;;5.87;;
7181;SDS011;3632;42.724;23.298;2024-01-11T12:24:52;6.13;;;5.53;;
7181;SDS011;3632;42.724;23.298;2024-01-11T12:27:19;7.27;;;6.57;;
7181;SDS011;3632;42.724;23.298;2024-01-11T12:29:46;10.07;;;5.33;;
7181;SDS011;3632;42.724;23.298;2024-01-11T12:32:14;7.87;;;4.77;;
7181;SDS011;3632;42.724;23.298;2024-01-11T12:34:42;6.77;;;5.43;;
7181;SDS011;3632;42.724;23.298;2024-01-11T12:37:09;6.80;;;4.60;;
7181;SDS011;3632;42.724;23.298;2024-01-11T12:39:37;7.23;;;4.33;;
7181;SDS011;3632;42.724;23.298;2024-01-11T12:42:06;6.53;;;4.37;;
7181;SDS011;3632;42.724;23.298;2024-01-11T12:44:34;7.93;;;4.90;;
7181;SDS011;3632;42.724;23.298;2024-01-11T12:47:02;7.93;;;5.10;;
7181;SDS011;3632;42.724;23.298;2024-01-11T12:49:31;5.87;;;4.67;;
7181;SDS011;3632;42.724;23.298;2024-01-11T12:51:58;6.67;;;4.80;;
7181;SDS011;3632;42.724;23.298;2024-01-11T12:54:24;6.70;;;4.40;;
7181;SDS011;3632;42.724;23.298;2024-01-11T12:56:51;5.60;;;4.57;;
7181;SDS011;3632;42.724;23.298;2024-01-11T12:59:19;4.37;;;3.97;;
7181;SDS011;3632;42.724;23.298;2024-01-11T13:01:51;5.80;;;4.60;;
7181;SDS011;3632;42.724;23.298;2024-01-11T13:04:18;7.93;;;4.30;;
7181;SDS011;3632;42.724;23.298;2024-01-11T13:06:45;6.60;;;4.80;;
7181;SDS011;3632;42.724;23.298;2024-01-11T13:09:12;6.93;;;4.43;;
7181;SDS011;3632;42.724;23.298;2024-01-11T13:11:39;6.73;;;3.93;;
7181;SDS011;3632;42.724;23.298;2024-01-11T13:14:06;4.60;;;3.60;;
7181;SDS011;3632;42.724;23.298;2024-01-11T13:16:40;5.70;;;4.10;;
7181;SDS011;3632;42.724;23.298;2024-01-11T13:19:08;5.00;;;4.10;;
7181;SDS011;3632;42.724;23.298;2024-01-11T13:21:35;7.00;;;5.03;;
7181;SDS011;3632;42.724;23.298;2024-01-11T13:24:02;5.23;;;4.20;;
7181;SDS011;3632;42.724;23.298;2024-01-11T13:26:30;5.40;;;4.57;;
7181;SDS011;3632;42.724;23.298;2024-01-11T13:28:57;7.40;;;4.73;;
7181;SDS011;3632;42.724;23.298;2024-01-11T13:31:24;5.67;;;4.40;;
7181;SDS011;3632;42.724;23.298;2024-01-11T13:33:52;4.90;;;4.40;;
7181;SDS011;3632;42.724;23.298;2024-01-11T13:36:20;5.63;;;4.30;;
7181;SDS011;3632;42.724;23.298;2024-01-11T13:38:46;4.77;;;4.07;;
7181;SDS011;3632;42.724;23.298;2024-01-11T13:41:14;5.10;;;4.30;;
7181;SDS011;3632;42.724;23.298;2024-01-11T13:43:42;9.13;;;7.83;;
7181;SDS011;3632;42.724;23.298;2024-01-11T13:46:08;6.57;;;4.83;;
7181;SDS011;3632;42.724;23.298;2024-01-11T13:48:37;5.23;;;4.23;;
7181;SDS011;3632;42.724;23.298;2024-01-11T13:51:06;4.57;;;4.17;;
7181;SDS011;3632;42.724;23.298;2024-01-11T13:53:35;5.43;;;4.37;;
7181;SDS011;3632;42.724;23.298;2024-01-11T13:56:01;4.93;;;4.43;;
7181;SDS011;3632;42.724;23.298;2024-01-11T13:58:29;8.30;;;5.30;;
7181;SDS011;3632;42.724;23.298;2024-01-11T14:00:56;5.70;;;4.80;;
7181;SDS011;3632;42.724;23.298;2024-01-11T14:03:23;5.33;;;4.60;;
7181;SDS011;3632;42.724;23.298;2024-01-11T14:05:50;5.97;;;4.50;;
7181;SDS011;3632;42.724;23.298;2024-01-11T14:08:19;8.83;;;5.30;;
7181;SDS011;3632;42.724;23.298;2024-01-11T14:10:46;6.97;;;5.40;;
7181;SDS011;3632;42.724;23.298;2024-01-11T14:13:12;6.60;;;5.33;;
7181;SDS011;3632;42.724;23.298;2024-01-11T14:15:39;9.57;;;6.50;;
7181;SDS011;3632;42.724;23.298;2024-01-11T14:18:06;7.33;;;5.07;;
7181;SDS011;3632;42.724;23.298;2024-01-11T14:20:34;7.17;;;5.30;;
7181;SDS011;3632;42.724;23.298;2024-01-11T14:23:01;8.30;;;5.93;;
7181;SDS011;3632;42.724;23.298;2024-01-11T14:25:29;6.70;;;5.70;;
7181;SDS011;3632;42.724;23.298;2024-01-11T14:27:56;7.83;;;5.53;;
7181;SDS011;3632;42.724;23.298;2024-01-11T14:30:23;7.57;;;5.03;;
7181;SDS011;3632;42.724;23.298;2024-01-11T14:32:50;7.63;;;5.33;;
7181;SDS011;3632;42.724;23.298;2024-01-11T14:35:17;8.13;;;5.37;;
7181;SDS011;3632;42.724;23.298;2024-01-11T14:37:43;11.30;;;6.03;;
7181;SDS011;3632;42.724;23.298;2024-01-11T14:40:10;8.60;;;5.90;;